Time;durP1;ratioP1;P1;durP2;ratioP2;P2;SDS_P1;SDS_P2;PMS_P1;PMS_P2;Temp;Humidity;BMP_temperature;BMP_pressure;BME280_temperature;BME280_humidity;BME280_pressure;Samples;Min_cycle;Max_cycle;Signal;HPM_P1;HPM_P2
2023/05/02 00:00:51;;;;;;;3.97;2.53;;;14.40;72.00;;;;;;5023677;28;20107;-86
2023/05/02 00:03:17;;;;;;;10.25;3.97;;;14.40;71.90;;;;;;5033152;28;20407;-86
2023/05/02 00:05:43;;;;;;;5.07;2.72;;;14.40;72.00;;;;;;5033062;28;20036;-87
2023/05/02 00:08:09;;;;;;;6.85;4.28;;;14.40;72.40;;;;;;5017107;28;20036;-87
2023/05/02 00:10:35;;;;;;;6.57;3.97;;;14.30;72.40;;;;;;5027603;28;20029;-87
2023/05/02 00:13:00;;;;;;;8.75;3.00;;;14.30;72.70;;;;;;5026405;28;20591;-87
2023/05/02 00:15:26;;;;;;;8.52;3.20;;;14.30;72.90;;;;;;5048335;28;20017;-87
2023/05/02 00:17:52;;;;;;;6.25;3.17;;;14.30;72.80;;;;;;5061760;28;20084;-87
2023/05/02 00:20:18;;;;;;;5.50;2.97;;;14.20;72.70;;;;;;5048260;28;20078;-87
2023/05/02 00:22:44;;;;;;;5.03;3.08;;;14.20;72.70;;;;;;5012853;28;20025;-87
2023/05/02 00:25:14;;;;;;;6.65;3.70;;;14.20;72.80;;;;;;5030736;28;20585;-86
2023/05/02 00:27:40;;;;;;;5.85;3.17;;;14.10;73.00;;;;;;5017282;28;20056;-87
2023/05/02 00:30:07;;;;;;;10.57;3.10;;;14.00;73.00;;;;;;5032310;28;20518;-86
2023/05/02 00:32:33;;;;;;;6.80;2.85;;;14.00;73.00;;;;;;5042781;28;20041;-86
2023/05/02 00:34:58;;;;;;;6.15;2.50;;;14.10;72.90;;;;;;5014807;28;20480;-86
2023/05/02 00:37:27;;;;;;;7.25;2.88;;;14.00;72.70;;;;;;5028454;28;20026;-86
2023/05/02 00:39:53;;;;;;;3.45;2.00;;;14.00;72.50;;;;;;5014152;28;20044;-86
2023/05/02 00:42:19;;;;;;;5.95;3.03;;;13.90;72.40;;;;;;5050836;28;20035;-86
2023/05/02 00:44:45;;;;;;;4.65;2.65;;;13.90;72.60;;;;;;5033436;28;20132;-92
2023/05/02 00:47:31;;;;;;;3.28;2.20;;;13.80;72.70;;;;;;5033999;28;20040;-92
2023/05/02 00:49:59;;;;;;;3.85;2.65;;;13.90;72.80;;;;;;5047907;28;20041;-92
2023/05/02 00:52:25;;;;;;;3.13;2.45;;;13.80;72.90;;;;;;5047924;28;20044;-91
2023/05/02 00:54:51;;;;;;;3.58;2.35;;;13.80;72.80;;;;;;5038861;28;20029;-86
2023/05/02 00:57:17;;;;;;;5.03;2.25;;;13.90;72.70;;;;;;5030369;28;20074;-86
2023/05/02 00:59:43;;;;;;;4.20;2.35;;;13.90;73.30;;;;;;5016071;28;20013;-86
2023/05/02 01:02:31;;;;;;;5.28;2.50;;;14.00;72.60;;;;;;5035862;28;20039;-92
2023/05/02 01:05:04;;;;;;;5.50;2.92;;;14.00;72.50;;;;;;5046058;28;20021;-92
2023/05/02 01:07:41;;;;;;;5.72;2.17;;;14.00;73.40;;;;;;5052095;28;20032;-93
2023/05/02 01:10:39;;;;;;;5.07;2.53;;;14.00;72.70;;;;;;5034742;28;20036;-93
2023/05/02 01:13:11;;;;;;;6.82;2.53;;;14.00;72.60;;;;;;5029396;28;20090;-86
2023/05/02 01:15:39;;;;;;;5.72;2.85;;;14.00;72.60;;;;;;5032836;28;20071;-92
2023/05/02 01:18:08;;;;;;;6.57;2.40;;;14.00;72.50;;;;;;5051325;28;20032;-92
2023/05/02 01:20:41;;;;;;;4.53;2.75;;;14.10;72.70;;;;;;5036404;28;20405;-92
2023/05/02 01:23:30;;;;;;;3.70;2.03;;;14.10;72.80;;;;;;5042699;28;20033;-86
2023/05/02 01:26:24;;;;;;;4.10;1.75;;;14.10;72.60;;;;;;5024196;28;20037;-92
2023/05/02 01:28:57;;;;;;;4.90;2.58;;;14.10;72.80;;;;;;5038117;28;20400;-92
2023/05/02 01:31:35;;;;;;;4.15;2.42;;;14.10;72.80;;;;;;5034965;28;20532;-92
2023/05/02 01:34:04;;;;;;;5.18;3.17;;;14.10;72.80;;;;;;5032853;28;20068;-92
2023/05/02 01:36:32;;;;;;;4.78;2.83;;;14.00;73.30;;;;;;5027010;28;20060;-93
2023/05/02 01:39:00;;;;;;;5.38;2.95;;;13.90;73.80;;;;;;5058175;28;20480;-93
2023/05/02 01:41:28;;;;;;;4.57;2.75;;;13.90;74.10;;;;;;5042494;28;20062;-93
2023/05/02 01:43:57;;;;;;;4.00;2.63;;;13.90;74.00;;;;;;5045358;28;20033;-94
2023/05/02 01:46:27;;;;;;;5.97;3.00;;;13.90;74.10;;;;;;5039346;28;20029;-89
2023/05/02 01:48:56;;;;;;;7.60;4.03;;;13.90;74.10;;;;;;5049057;28;20127;-92
2023/05/02 01:51:28;;;;;;;3.90;2.50;;;13.90;74.10;;;;;;5031797;28;20045;-86
2023/05/02 01:53:55;;;;;;;5.22;2.67;;;14.00;74.10;;;;;;5030444;28;20033;-86
2023/05/02 01:56:24;;;;;;;5.45;3.00;;;14.00;74.30;;;;;;5031773;28;20129;-87
2023/05/02 01:58:52;;;;;;;4.28;2.90;;;14.00;74.60;;;;;;5036336;28;20029;-86
2023/05/02 02:01:18;;;;;;;8.35;2.53;;;14.00;74.70;;;;;;5031987;28;20021;-87
2023/05/02 02:03:45;;;;;;;7.93;2.33;;;13.90;74.60;;;;;;5031462;28;20029;-86
2023/05/02 02:06:13;;;;;;;4.95;2.70;;;14.00;74.70;;;;;;5023536;28;20040;-87
2023/05/02 02:08:39;;;;;;;5.00;2.53;;;13.90;74.80;;;;;;5059894;28;20403;-87
2023/05/02 02:11:09;;;;;;;4.70;2.60;;;13.90;75.10;;;;;;5032603;28;20036;-87
2023/05/02 02:13:42;;;;;;;5.25;1.85;;;13.90;75.10;;;;;;5048160;28;20372;-87
2023/05/02 02:16:12;;;;;;;4.40;1.83;;;13.90;75.20;;;;;;5032333;28;20017;-87
2023/05/02 02:18:38;;;;;;;6.03;1.70;;;13.90;75.40;;;;;;5036795;28;20108;-86
2023/05/02 02:21:10;;;;;;;3.67;1.33;;;13.80;75.40;;;;;;5019242;28;20128;-87
2023/05/02 02:23:38;;;;;;;3.20;1.45;;;13.80;75.40;;;;;;5057826;28;20049;-93
2023/05/02 02:26:06;;;;;;;1.13;0.95;;;13.80;75.60;;;;;;5070367;28;20392;-93
2023/05/02 02:28:33;;;;;;;3.53;1.45;;;13.80;75.60;;;;;;5024173;28;20021;-92
2023/05/02 02:30:59;;;;;;;5.03;1.25;;;13.70;75.50;;;;;;5037599;28;20112;-93
2023/05/02 02:33:29;;;;;;;2.50;1.38;;;13.80;75.50;;;;;;5026503;28;20728;-93
2023/05/02 02:36:29;;;;;;;2.17;1.27;;;13.80;75.40;;;;;;5057714;28;20388;-94
2023/05/02 02:39:11;;;;;;;1.05;0.95;;;13.80;75.10;;;;;;5028836;28;20091;-94
2023/05/02 02:41:45;;;;;;;;;;;13.80;75.20;;;;;;5056877;28;20112;-93
2023/05/02 02:44:33;;;;;;;3.58;1.20;;;13.70;75.30;;;;;;5037612;28;19921;-93
2023/05/02 02:47:28;;;;;;;1.10;0.70;;;13.60;75.00;;;;;;5032904;28;20033;-93
2023/05/02 02:50:09;;;;;;;3.47;1.02;;;13.60;74.80;;;;;;5041575;28;20035;-93
2023/05/02 02:53:14;;;;;;;2.10;0.80;;;13.50;74.60;;;;;;5075246;28;20492;-93
2023/05/02 02:56:01;;;;;;;2.35;1.45;;;13.50;74.30;;;;;;5034147;28;20108;-93
2023/05/02 02:58:49;;;;;;;2.85;0.98;;;13.40;74.10;;;;;;5030140;28;20464;-93
2023/05/02 03:01:19;;;;;;;1.20;1.10;;;13.40;74.00;;;;;;5032420;28;20132;-93
2023/05/02 03:03:46;;;;;;;0.50;0.50;;;13.40;73.90;;;;;;5043060;28;20029;-94
2023/05/02 03:06:12;;;;;;;4.55;1.33;;;13.40;73.70;;;;;;5039771;28;20048;-93
2023/05/02 03:08:42;;;;;;;2.40;0.95;;;13.40;73.50;;;;;;5036857;28;20393;-93
2023/05/02 03:11:08;;;;;;;1.05;0.65;;;13.40;73.40;;;;;;5048408;28;20036;-87
2023/05/02 03:13:34;;;;;;;4.57;1.48;;;13.40;73.30;;;;;;5035124;28;20388;-86
2023/05/02 03:16:19;;;;;;;1.13;0.68;;;13.40;73.30;;;;;;5050840;28;20281;-87
2023/05/02 03:18:53;;;;;;;1.02;0.60;;;13.40;73.20;;;;;;5041574;28;20467;-93
2023/05/02 03:21:19;;;;;;;1.30;0.90;;;13.40;73.00;;;;;;5021066;28;20118;-93
2023/05/02 03:23:45;;;;;;;0.90;0.52;;;13.40;73.10;;;;;;5033881;28;20072;-87
2023/05/02 03:26:11;;;;;;;5.78;1.10;;;13.40;73.10;;;;;;5016695;28;20034;-86
2023/05/02 03:28:37;;;;;;;2.10;0.85;;;13.30;73.00;;;;;;5050465;28;20027;-86
2023/05/02 03:31:02;;;;;;;3.22;1.13;;;13.30;72.90;;;;;;5033312;28;20128;-86
2023/05/02 03:33:28;;;;;;;0.50;0.50;;;13.20;72.90;;;;;;5048972;28;20484;-86
2023/05/02 03:35:54;;;;;;;0.40;0.40;;;13.20;72.90;;;;;;5017645;28;20029;-86
2023/05/02 03:38:20;;;;;;;1.42;0.80;;;13.20;72.90;;;;;;5048839;28;20094;-86
2023/05/02 03:40:45;;;;;;;1.20;0.70;;;13.10;72.80;;;;;;5032581;28;20408;-86
2023/05/02 03:43:11;;;;;;;3.67;1.33;;;13.00;72.90;;;;;;5020370;28;20047;-86
2023/05/02 03:45:37;;;;;;;3.00;0.82;;;13.00;73.00;;;;;;5030015;28;20079;-85
2023/05/02 03:48:02;;;;;;;3.15;0.95;;;12.90;73.10;;;;;;5032055;28;20067;-86
2023/05/02 03:50:28;;;;;;;0.80;0.63;;;12.90;73.20;;;;;;5037219;28;20021;-86
2023/05/02 03:52:54;;;;;;;1.30;0.60;;;12.90;73.00;;;;;;5015710;28;20033;-87
2023/05/02 03:55:20;;;;;;;2.40;0.50;;;13.00;72.90;;;;;;5018365;28;20025;-84
2023/05/02 03:57:46;;;;;;;0.40;0.40;;;13.00;72.80;;;;;;5015209;28;20025;-85
2023/05/02 04:00:12;;;;;;;0.90;0.70;;;13.00;72.80;;;;;;5018925;28;20021;-86
2023/05/02 04:02:40;;;;;;;0.98;0.45;;;12.90;72.80;;;;;;5047944;28;20017;-92
2023/05/02 04:05:09;;;;;;;2.30;0.70;;;13.00;72.80;;;;;;5033816;28;20048;-92
2023/05/02 04:07:35;;;;;;;0.47;0.43;;;13.00;72.60;;;;;;5018862;28;20028;-92
2023/05/02 04:10:00;;;;;;;2.03;0.60;;;13.00;72.50;;;;;;5053482;28;20028;-91
2023/05/02 04:12:27;;;;;;;0.52;0.52;;;13.00;72.50;;;;;;5019475;28;20025;-91
2023/05/02 04:14:53;;;;;;;6.28;1.00;;;13.00;72.40;;;;;;5024986;28;20071;-92
2023/05/02 04:17:20;;;;;;;1.48;0.70;;;13.00;72.30;;;;;;5022626;28;20037;-93
2023/05/02 04:19:45;;;;;;;0.80;0.68;;;13.00;72.20;;;;;;5035889;28;20361;-93
2023/05/02 04:22:11;;;;;;;0.55;0.50;;;12.90;72.20;;;;;;5045389;28;20038;-93
2023/05/02 04:24:37;;;;;;;1.52;0.50;;;12.90;72.20;;;;;;5047539;28;20053;-85
2023/05/02 04:27:03;;;;;;;1.00;0.73;;;12.90;72.30;;;;;;5023558;28;20029;-86
2023/05/02 04:29:28;;;;;;;3.63;0.40;;;12.80;72.80;;;;;;5003731;28;20028;-86
2023/05/02 04:31:54;;;;;;;3.08;1.33;;;12.90;72.20;;;;;;5000874;28;20029;-86
2023/05/02 04:34:20;;;;;;;1.55;0.77;;;12.90;72.00;;;;;;5019805;28;20021;-87
2023/05/02 04:36:46;;;;;;;3.67;1.40;;;12.90;72.00;;;;;;5004262;28;20035;-86
2023/05/02 04:39:12;;;;;;;1.10;0.52;;;12.90;71.70;;;;;;5018234;28;20040;-87
2023/05/02 04:41:39;;;;;;;0.60;0.45;;;12.90;71.50;;;;;;5020223;28;20036;-86
2023/05/02 04:44:05;;;;;;;1.45;0.60;;;12.90;71.40;;;;;;5025043;28;20502;-94
2023/05/02 04:46:31;;;;;;;0.75;0.60;;;12.90;71.20;;;;;;5021729;28;20029;-92
2023/05/02 04:48:56;;;;;;;0.40;0.40;;;12.80;71.00;;;;;;5001586;28;20412;-93
2023/05/02 04:51:23;;;;;;;4.60;0.98;;;12.80;70.80;;;;;;5026504;28;20112;-94
2023/05/02 04:53:49;;;;;;;0.50;0.50;;;12.90;70.60;;;;;;5022864;28;20029;-87
2023/05/02 04:56:17;;;;;;;0.75;0.40;;;12.90;70.20;;;;;;5004198;28;20537;-87
2023/05/02 04:58:43;;;;;;;1.13;0.52;;;12.90;70.10;;;;;;5016403;28;20112;-86
2023/05/02 05:01:09;;;;;;;2.83;0.57;;;12.90;70.00;;;;;;5002371;28;20123;-87
2023/05/02 05:03:34;;;;;;;1.80;0.55;;;12.90;69.90;;;;;;5020178;28;20033;-87
2023/05/02 05:06:01;;;;;;;2.70;0.90;;;12.90;69.70;;;;;;5044523;28;20034;-93
2023/05/02 05:08:26;;;;;;;1.58;0.82;;;12.90;69.40;;;;;;5007050;28;20534;-94
2023/05/02 05:10:52;;;;;;;0.70;0.40;;;12.90;69.30;;;;;;5006150;28;20037;-94
2023/05/02 05:13:18;;;;;;;2.20;1.08;;;12.90;69.30;;;;;;5008404;28;20053;-94
2023/05/02 05:15:43;;;;;;;1.30;0.60;;;12.90;68.70;;;;;;5023838;28;20030;-93
2023/05/02 05:18:09;;;;;;;2.80;1.10;;;12.90;68.60;;;;;;5007215;28;20414;-86
2023/05/02 05:20:35;;;;;;;1.17;0.77;;;12.90;68.50;;;;;;5004216;28;20040;-86
2023/05/02 05:23:01;;;;;;;0.82;0.60;;;12.90;68.50;;;;;;5018951;28;20112;-86
2023/05/02 05:25:27;;;;;;;0.90;0.30;;;12.90;68.00;;;;;;5044758;28;20049;-86
2023/05/02 05:27:54;;;;;;;2.42;0.77;;;12.90;68.10;;;;;;5032412;28;20041;-92
2023/05/02 05:30:20;;;;;;;4.28;0.98;;;12.90;68.00;;;;;;5016434;28;20053;-86
2023/05/02 05:32:46;;;;;;;1.10;0.63;;;12.90;67.90;;;;;;5031961;28;20387;-86
2023/05/02 05:35:12;;;;;;;2.25;0.63;;;12.80;68.00;;;;;;5000238;28;20116;-86
2023/05/02 05:37:38;;;;;;;0.85;0.80;;;12.80;68.00;;;;;;5007282;28;20069;-86
2023/05/02 05:40:08;;;;;;;1.45;1.00;;;12.80;68.00;;;;;;5017512;28;20025;-86
2023/05/02 05:42:33;;;;;;;0.82;0.82;;;12.80;68.00;;;;;;5023540;28;20036;-86
2023/05/02 05:44:59;;;;;;;2.25;0.60;;;12.90;67.80;;;;;;5037322;28;20029;-92
2023/05/02 05:47:25;;;;;;;0.80;0.68;;;12.80;66.90;;;;;;5031419;28;20028;-93
2023/05/02 05:49:55;;;;;;;2.28;0.85;;;12.80;66.90;;;;;;5021988;28;20031;-92
2023/05/02 05:52:21;;;;;;;2.65;0.73;;;12.80;66.60;;;;;;5019923;28;20040;-92
2023/05/02 05:54:47;;;;;;;1.63;0.93;;;12.70;66.70;;;;;;5029974;28;20087;-86
2023/05/02 05:57:13;;;;;;;0.50;0.50;;;12.70;66.90;;;;;;5048531;28;20032;-85
2023/05/02 05:59:38;;;;;;;0.38;0.35;;;12.70;66.90;;;;;;5024385;28;20020;-85
2023/05/02 06:02:04;;;;;;;0.82;0.63;;;12.70;66.90;;;;;;5049696;28;20033;-86
2023/05/02 06:04:30;;;;;;;0.77;0.77;;;12.80;66.70;;;;;;5052529;28;20056;-86
2023/05/02 06:06:56;;;;;;;0.80;0.80;;;12.90;66.70;;;;;;5032034;28;20044;-86
2023/05/02 06:09:22;;;;;;;0.65;0.63;;;12.90;66.80;;;;;;5037769;28;20029;-93
2023/05/02 06:11:47;;;;;;;2.58;1.15;;;12.90;66.50;;;;;;5037534;28;20055;-92
2023/05/02 06:14:13;;;;;;;6.32;1.05;;;13.00;66.60;;;;;;5034413;28;20021;-86
2023/05/02 06:16:39;;;;;;;5.57;1.02;;;13.00;66.30;;;;;;5041461;28;20082;-86
2023/05/02 06:19:05;;;;;;;0.50;0.50;;;13.00;66.20;;;;;;5019179;28;20025;-91
2023/05/02 06:21:31;;;;;;;1.75;0.70;;;13.10;66.10;;;;;;5019186;28;20029;-93
2023/05/02 06:23:56;;;;;;;4.00;1.08;;;13.00;66.00;;;;;;5034775;28;20053;-93
2023/05/02 06:26:22;;;;;;;3.35;1.02;;;13.00;65.80;;;;;;5003352;28;20083;-92
2023/05/02 06:28:48;;;;;;;7.20;1.75;;;12.90;65.80;;;;;;5016796;28;20041;-86
2023/05/02 06:31:15;;;;;;;4.45;1.02;;;12.90;65.60;;;;;;5012215;28;20120;-86
2023/05/02 06:33:41;;;;;;;2.40;0.95;;;12.90;65.70;;;;;;5029198;28;20030;-86
2023/05/02 06:36:12;;;;;;;6.22;0.60;;;12.90;65.60;;;;;;5028544;28;20025;-86
2023/05/02 06:38:38;;;;;;;1.00;0.82;;;12.90;65.60;;;;;;4999082;28;20048;-86
2023/05/02 06:41:04;;;;;;;2.97;0.68;;;13.00;65.60;;;;;;5008871;28;20072;-86
2023/05/02 06:43:30;;;;;;;2.42;1.40;;;13.00;65.40;;;;;;5032494;28;20029;-86
2023/05/02 06:45:56;;;;;;;2.42;0.82;;;13.00;65.00;;;;;;5000327;28;20034;-86
2023/05/02 06:48:22;;;;;;;3.60;1.42;;;13.00;65.00;;;;;;5014216;28;20488;-85
2023/05/02 06:50:50;;;;;;;1.88;0.60;;;13.10;65.10;;;;;;5023684;28;20025;-86
2023/05/02 06:53:16;;;;;;;0.77;0.68;;;13.10;65.10;;;;;;5027527;28;20042;-86
2023/05/02 06:55:42;;;;;;;2.75;1.48;;;13.20;65.00;;;;;;5030367;28;20052;-86
2023/05/02 06:58:07;;;;;;;4.40;1.58;;;13.20;64.80;;;;;;5015142;28;20022;-86
2023/05/02 07:00:33;;;;;;;0.68;0.68;;;13.30;64.60;;;;;;5009717;28;20136;-86
2023/05/02 07:02:59;;;;;;;1.85;1.25;;;13.30;64.50;;;;;;5014099;28;20034;-86
2023/05/02 07:05:30;;;;;;;1.83;0.70;;;13.40;64.20;;;;;;5013931;28;20084;-86
2023/05/02 07:07:55;;;;;;;1.75;0.60;;;13.50;64.10;;;;;;5014992;28;20116;-87
2023/05/02 07:10:21;;;;;;;1.67;0.77;;;13.50;63.80;;;;;;5014791;28;20552;-87
2023/05/02 07:12:47;;;;;;;2.80;0.65;;;13.60;63.60;;;;;;5014072;28;20025;-86
2023/05/02 07:15:13;;;;;;;1.95;0.73;;;13.60;63.30;;;;;;5037304;28;20499;-87
2023/05/02 07:17:39;;;;;;;0.73;0.68;;;13.60;63.20;;;;;;5002060;28;20033;-86
2023/05/02 07:20:06;;;;;;;1.85;0.60;;;13.60;62.80;;;;;;5032268;28;20032;-86
2023/05/02 07:22:32;;;;;;;0.90;0.60;;;13.60;62.50;;;;;;5021295;28;20029;-86
2023/05/02 07:24:59;;;;;;;3.05;0.50;;;13.50;62.40;;;;;;5029744;28;20052;-87
2023/05/02 07:27:25;;;;;;;0.55;0.40;;;13.60;62.50;;;;;;5044749;28;20028;-93
2023/05/02 07:29:51;;;;;;;1.60;0.70;;;13.60;62.30;;;;;;5071262;28;20021;-92
2023/05/02 07:32:16;;;;;;;0.73;0.65;;;13.60;62.20;;;;;;5034446;28;20479;-92
2023/05/02 07:34:42;;;;;;;0.77;0.47;;;13.70;61.60;;;;;;5000536;28;20064;-93
2023/05/02 07:37:08;;;;;;;3.20;1.33;;;13.70;61.20;;;;;;5014529;28;20017;-87
2023/05/02 07:39:34;;;;;;;2.38;0.80;;;13.60;61.40;;;;;;5031611;28;20499;-87
2023/05/02 07:42:00;;;;;;;3.83;0.93;;;13.70;61.50;;;;;;5036419;28;20472;-86
2023/05/02 07:44:25;;;;;;;2.05;0.90;;;13.70;61.70;;;;;;5033911;28;20543;-87
2023/05/02 07:46:51;;;;;;;0.85;0.57;;;13.70;61.70;;;;;;5009855;28;20078;-87
2023/05/02 07:49:18;;;;;;;1.92;1.15;;;13.70;61.80;;;;;;5016919;28;20026;-87
2023/05/02 07:51:44;;;;;;;0.80;0.60;;;13.80;61.60;;;;;;5034277;28;20090;-87
2023/05/02 07:54:17;;;;;;;2.25;0.80;;;13.80;61.50;;;;;;5032914;28;20108;-87
2023/05/02 07:56:43;;;;;;;1.77;1.00;;;13.80;61.30;;;;;;5046050;28;20037;-87
2023/05/02 07:59:09;;;;;;;0.95;0.85;;;13.80;61.10;;;;;;5018280;28;20146;-87
2023/05/02 08:01:35;;;;;;;3.00;1.00;;;13.70;60.90;;;;;;5037021;28;20032;-87
2023/05/02 08:04:00;;;;;;;4.18;0.85;;;13.50;61.10;;;;;;5031553;28;20501;-86
2023/05/02 08:06:27;;;;;;;1.33;0.40;;;13.50;61.40;;;;;;5034639;28;20035;-87
2023/05/02 08:08:53;;;;;;;2.55;0.90;;;13.40;61.50;;;;;;5016188;28;20033;-87
2023/05/02 08:11:24;;;;;;;0.82;0.82;;;13.30;61.60;;;;;;5022181;28;20029;-87
2023/05/02 08:13:52;;;;;;;1.35;0.60;;;13.30;61.70;;;;;;5045302;28;20078;-87
2023/05/02 08:16:19;;;;;;;1.30;0.68;;;13.30;61.60;;;;;;5034007;28;20029;-87
2023/05/02 08:18:45;;;;;;;2.28;0.85;;;13.30;61.30;;;;;;5028765;28;20028;-87
2023/05/02 08:21:11;;;;;;;3.72;1.02;;;13.50;61.20;;;;;;5017237;28;20041;-87
2023/05/02 08:23:37;;;;;;;4.85;0.80;;;13.60;60.90;;;;;;5020399;28;20507;-87
2023/05/02 08:26:03;;;;;;;0.52;0.40;;;13.80;60.20;;;;;;5017750;28;20053;-87
2023/05/02 08:28:29;;;;;;;1.33;0.90;;;13.90;59.90;;;;;;5013042;28;20029;-93
2023/05/02 08:30:55;;;;;;;1.75;0.52;;;14.00;59.70;;;;;;5009297;28;20038;-86
2023/05/02 08:33:21;;;;;;;2.15;0.40;;;14.00;58.80;;;;;;5003347;28;20097;-87
2023/05/02 08:35:47;;;;;;;1.30;0.40;;;14.10;57.60;;;;;;5021422;28;20428;-94
2023/05/02 08:38:13;;;;;;;0.85;0.38;;;14.10;57.30;;;;;;5008846;28;20022;-87
2023/05/02 08:40:38;;;;;;;0.40;0.40;;;14.20;57.40;;;;;;5015139;28;20036;-87
2023/05/02 08:43:05;;;;;;;0.47;0.30;;;14.30;56.90;;;;;;5003370;28;20045;-87
2023/05/02 08:45:37;;;;;;;1.65;0.60;;;14.30;56.90;;;;;;5004156;28;20030;-86
2023/05/02 08:48:12;;;;;;;0.95;0.80;;;14.40;56.90;;;;;;5005503;28;20018;-86
2023/05/02 08:50:48;;;;;;;0.20;0.20;;;14.60;56.10;;;;;;5007460;28;20040;-86
2023/05/02 08:53:14;;;;;;;0.50;0.30;;;14.70;55.70;;;;;;5049390;28;20112;-87
2023/05/02 08:55:41;;;;;;;0.20;0.20;;;14.70;55.50;;;;;;5013222;28;20025;-86
2023/05/02 08:58:08;;;;;;;0.30;0.30;;;14.70;55.00;;;;;;5017999;28;20491;-86
2023/05/02 09:00:41;;;;;;;0.35;0.35;;;14.80;54.70;;;;;;5015588;28;20116;-87
2023/05/02 09:03:30;;;;;;;0.75;0.30;;;14.90;54.30;;;;;;5027204;28;20033;-86
2023/05/02 09:06:05;;;;;;;1.13;0.75;;;14.90;53.80;;;;;;5004759;28;20488;-86
2023/05/02 09:08:32;;;;;;;0.85;0.55;;;14.90;53.80;;;;;;5017476;28;20022;-86
2023/05/02 09:10:58;;;;;;;3.72;0.75;;;14.90;53.40;;;;;;5030123;28;20478;-86
2023/05/02 09:13:34;;;;;;;1.08;0.60;;;14.90;53.50;;;;;;5010430;28;20022;-86
2023/05/02 09:16:01;;;;;;;1.67;0.38;;;14.90;53.50;;;;;;5027072;28;20041;-86
2023/05/02 09:18:35;;;;;;;0.63;0.40;;;15.00;53.40;;;;;;5010472;28;20481;-93
2023/05/02 09:21:05;;;;;;;1.38;0.70;;;15.10;51.80;;;;;;5016774;28;20535;-87
2023/05/02 09:23:32;;;;;;;0.60;0.60;;;15.00;51.50;;;;;;5032033;28;20388;-86
2023/05/02 09:26:00;;;;;;;0.60;0.47;;;15.10;52.00;;;;;;5030840;28;20045;-88
2023/05/02 09:28:45;;;;;;;1.52;0.60;;;15.20;51.80;;;;;;5028671;28;20040;-88
2023/05/02 09:31:16;;;;;;;0.98;0.70;;;15.20;51.00;;;;;;5041387;28;20069;-88
2023/05/02 09:33:43;;;;;;;2.50;0.60;;;15.20;50.30;;;;;;5012529;28;20022;-86
2023/05/02 09:36:14;;;;;;;1.27;0.65;;;15.10;50.00;;;;;;5015754;28;20030;-86
2023/05/02 09:38:44;;;;;;;0.25;0.25;;;15.00;49.80;;;;;;5051184;28;20444;-93
2023/05/02 09:41:10;;;;;;;0.80;0.73;;;14.90;49.40;;;;;;5016687;28;20025;-92
2023/05/02 09:43:37;;;;;;;1.92;0.55;;;15.00;50.20;;;;;;5034003;28;20033;-93
2023/05/02 09:46:08;;;;;;;3.13;0.60;;;15.20;50.10;;;;;;5034139;28;20032;-92
2023/05/02 09:48:54;;;;;;;0.52;0.40;;;15.50;49.90;;;;;;5033076;28;20013;-92
2023/05/02 09:51:21;;;;;;;3.95;0.50;;;16.00;49.20;;;;;;5033594;28;20021;-92
2023/05/02 09:53:47;;;;;;;1.42;0.75;;;16.20;48.20;;;;;;5017249;28;20021;-92
2023/05/02 09:56:14;;;;;;;0.98;0.30;;;16.30;48.00;;;;;;5054084;28;20095;-92
2023/05/02 09:58:39;;;;;;;0.73;0.43;;;16.30;47.00;;;;;;5034284;28;20032;-92
2023/05/02 10:01:05;;;;;;;0.63;0.40;;;16.20;47.10;;;;;;5031628;28;20107;-86
2023/05/02 10:03:36;;;;;;;2.28;0.65;;;16.00;46.60;;;;;;5015520;28;20032;-87
2023/05/02 10:06:04;;;;;;;0.30;0.30;;;15.90;47.10;;;;;;5031328;28;20033;-87
2023/05/02 10:08:32;;;;;;;0.20;0.20;;;15.80;47.30;;;;;;5030990;28;20037;-87
2023/05/02 10:10:59;;;;;;;0.73;0.47;;;15.70;47.30;;;;;;5034785;28;20061;-93
2023/05/02 10:13:31;;;;;;;1.02;0.35;;;16.00;47.10;;;;;;5034982;28;20555;-93
2023/05/02 10:16:02;;;;;;;0.65;0.30;;;16.20;46.10;;;;;;5038011;28;20028;-92
2023/05/02 10:18:47;;;;;;;0.63;0.50;;;16.40;46.30;;;;;;5067548;28;20044;-93
2023/05/02 10:21:19;;;;;;;0.43;0.40;;;16.70;45.30;;;;;;5034688;28;20040;-93
2023/05/02 10:23:46;;;;;;;0.88;0.50;;;16.90;45.40;;;;;;5051729;28;20053;-87
2023/05/02 10:26:16;;;;;;;1.50;0.45;;;16.90;43.80;;;;;;5013721;28;20037;-88
2023/05/02 10:28:42;;;;;;;0.90;0.68;;;16.60;43.90;;;;;;5032213;28;20084;-87
2023/05/02 10:31:12;;;;;;;0.57;0.55;;;16.60;44.40;;;;;;5016684;28;20515;-87
2023/05/02 10:33:39;;;;;;;1.42;0.60;;;16.60;44.20;;;;;;5068806;28;20111;-87
2023/05/02 10:36:07;;;;;;;0.77;0.77;;;16.70;44.30;;;;;;5034738;28;20021;-86
2023/05/02 10:38:34;;;;;;;1.15;0.50;;;16.60;43.60;;;;;;5034926;28;20488;-94
2023/05/02 10:41:04;;;;;;;1.90;1.08;;;16.50;44.00;;;;;;5037088;28;20028;-91
2023/05/02 10:43:35;;;;;;;1.73;0.80;;;16.70;43.80;;;;;;5022365;28;20041;-94
2023/05/02 10:46:04;;;;;;;0.60;0.50;;;16.80;43.20;;;;;;5032003;28;20104;-93
2023/05/02 10:48:31;;;;;;;2.30;0.40;;;16.90;42.30;;;;;;5034614;28;20025;-93
2023/05/02 10:51:00;;;;;;;1.38;0.60;;;16.90;43.30;;;;;;5029685;28;20029;-93
2023/05/02 10:53:35;;;;;;;0.50;0.40;;;17.10;43.90;;;;;;5042822;28;20009;-88
2023/05/02 10:56:15;;;;;;;0.40;0.40;;;17.30;43.40;;;;;;5055135;28;20942;-87
2023/05/02 10:58:45;;;;;;;1.70;0.93;;;17.20;43.10;;;;;;5034789;28;20163;-86
2023/05/02 11:01:33;;;;;;;2.95;0.60;;;16.90;41.70;;;;;;5032588;28;20144;-87
2023/05/02 11:04:06;;;;;;;3.22;0.55;;;16.50;42.40;;;;;;5049477;28;20488;-87
2023/05/02 11:06:34;;;;;;;1.27;0.50;;;16.50;43.20;;;;;;5039908;28;20033;-88
2023/05/02 11:09:13;;;;;;;1.52;0.70;;;16.70;43.10;;;;;;5035441;28;20028;-94
2023/05/02 11:11:40;;;;;;;0.63;0.63;;;17.00;42.10;;;;;;5066606;28;20033;-86
2023/05/02 11:14:06;;;;;;;0.50;0.40;;;17.20;41.80;;;;;;5036243;28;20044;-93
2023/05/02 11:16:57;;;;;;;1.00;0.68;;;17.50;42.10;;;;;;5034301;28;20067;-93
2023/05/02 11:19:23;;;;;;;0.45;0.40;;;18.00;41.50;;;;;;5037218;28;20059;-94
2023/05/02 11:21:52;;;;;;;0.63;0.47;;;18.00;39.90;;;;;;5062286;28;20025;-93
2023/05/02 11:24:41;;;;;;;1.58;0.60;;;17.70;40.40;;;;;;5051132;28;20068;-93
2023/05/02 11:27:32;;;;;;;2.60;1.02;;;17.50;40.90;;;;;;5051462;28;20496;-93
2023/05/02 11:30:05;;;;;;;1.80;0.52;;;17.50;41.40;;;;;;5066630;28;20025;-94
2023/05/02 11:32:52;;;;;;;2.30;0.50;;;17.50;41.60;;;;;;5025196;28;20125;-88
2023/05/02 11:35:25;;;;;;;3.00;1.05;;;17.70;41.40;;;;;;5073895;28;20032;-87
2023/05/02 11:38:02;;;;;;;2.83;1.05;;;17.80;41.00;;;;;;5029598;28;20488;-86
2023/05/02 11:40:29;;;;;;;4.25;0.70;;;18.10;41.20;;;;;;5065338;28;20082;-88
2023/05/02 11:42:56;;;;;;;2.83;0.70;;;18.30;39.80;;;;;;5033383;28;20057;-88
2023/05/02 11:45:43;;;;;;;1.00;0.60;;;18.20;39.50;;;;;;5038974;28;20511;-93
2023/05/02 11:48:16;;;;;;;0.70;0.63;;;18.10;39.70;;;;;;5031219;28;20029;-88
2023/05/02 11:50:45;;;;;;;;;;;17.80;39.10;;;;;;5039481;28;20028;-88
2023/05/02 11:53:16;;;;;;;0.38;0.38;;;17.60;39.40;;;;;;5034014;28;20291;-88
2023/05/02 11:55:51;;;;;;;2.30;0.77;;;17.80;40.40;;;;;;5036159;28;20052;-94
2023/05/02 11:58:19;;;;;;;2.03;0.82;;;18.00;40.50;;;;;;5037277;28;20111;-93
2023/05/02 12:00:46;;;;;;;2.47;1.02;;;18.20;40.50;;;;;;5052437;28;20029;-93
2023/05/02 12:03:29;;;;;;;1.50;0.70;;;18.30;40.40;;;;;;5028731;28;20068;-93
2023/05/02 12:05:56;;;;;;;3.70;1.00;;;18.40;39.50;;;;;;5034784;28;20111;-94
2023/05/02 12:08:27;;;;;;;1.48;0.80;;;18.30;39.40;;;;;;5035182;28;20025;-93
2023/05/02 12:10:55;;;;;;;2.28;0.77;;;18.40;39.30;;;;;;5035073;28;20071;-93
2023/05/02 12:13:23;;;;;;;1.33;0.65;;;18.50;39.50;;;;;;5015588;28;20380;-94
2023/05/02 12:15:50;;;;;;;2.05;0.73;;;18.60;39.30;;;;;;5034235;28;20503;-94
2023/05/02 12:18:17;;;;;;;0.90;0.60;;;18.70;39.50;;;;;;5026205;28;20028;-88
2023/05/02 12:20:44;;;;;;;1.27;0.60;;;18.90;39.20;;;;;;5023623;28;20021;-87
2023/05/02 12:23:10;;;;;;;0.65;0.60;;;19.00;38.50;;;;;;5049661;28;20044;-88
2023/05/02 12:25:40;;;;;;;1.23;0.65;;;19.10;38.50;;;;;;5019114;28;20489;-87
2023/05/02 12:28:07;;;;;;;2.55;0.73;;;19.00;37.80;;;;;;5029470;28;20018;-88
2023/05/02 12:30:34;;;;;;;1.73;0.88;;;19.00;38.20;;;;;;4990105;28;20417;-88
2023/05/02 12:33:01;;;;;;;3.35;1.23;;;19.00;37.80;;;;;;4996632;28;20342;-88
2023/05/02 12:35:28;;;;;;;0.60;0.60;;;19.20;38.30;;;;;;5005758;28;20097;-88
2023/05/02 12:37:55;;;;;;;1.42;0.60;;;19.50;38.10;;;;;;5013430;28;20087;-88
2023/05/02 12:40:21;;;;;;;3.78;0.90;;;19.60;37.10;;;;;;5012549;28;20048;-88
2023/05/02 12:42:59;;;;;;;3.38;1.27;;;19.60;36.70;;;;;;5012985;28;20048;-88
2023/05/02 12:45:28;;;;;;;1.23;0.63;;;19.40;36.40;;;;;;5007153;28;20075;-88
2023/05/02 12:47:53;;;;;;;1.17;0.73;;;18.90;36.80;;;;;;5044113;28;20033;-88
2023/05/02 12:50:19;;;;;;;1.38;0.77;;;18.80;37.70;;;;;;5024751;28;20439;-88
2023/05/02 12:52:45;;;;;;;0.90;0.80;;;18.90;37.60;;;;;;5013033;28;20056;-88
2023/05/02 12:55:26;;;;;;;2.40;0.50;;;18.90;37.20;;;;;;5012356;28;20029;-88
2023/05/02 12:58:12;;;;;;;0.75;0.60;;;18.80;37.40;;;;;;5012991;28;20045;-94